Pickle Lake, Pickle Lake Airport (CYPL)

NamePickle Lake Airport
CityPickle Lake
CountryCanada
ICAOCYPL
IATAYPL
Altitude386 m
CoordinatesGoogle Map
Live Air TrafficLiveATC.net
METARCYPL 201700Z 02006KT 12SM -SN SCT008 OVC015 01/M01 A3000 RMK SF3SC5 SLP181
2019-03-20 17:00:00 Wind: North (20°) 3.09 m/s - Visibility: 19312.08 m - Weather: Light Snow - Temperature: 1 °C - Dew point: -1 °C - Humidity: 86.7% - Pressure: 1015.92 hPa
Statistics

The table below shows the detailed information of all flights to/from Pickle Lake, Pickle Lake Airport (CYPL).